Time;durP1;ratioP1;P1;durP2;ratioP2;P2;SDS_P1;SDS_P2;PMS_P1;PMS_P2;Temp;Humidity;BMP_temperature;BMP_pressure;BME280_temperature;BME280_humidity;BME280_pressure;Samples;Min_cycle;Max_cycle;Signal;HPM_P1;HPM_P2
2021/07/06 00:01:05;;;;;;;;;2.00;2.00;;;;;21.06;63.78;99651.09;4974772;28;62223;-59
2021/07/06 00:03:31;;;;;;;;;3.00;3.00;;;;;21.07;63.42;99647.41;4975413;28;45440;-60
2021/07/06 00:05:56;;;;;;;;;2.00;2.00;;;;;21.07;64.30;99639.38;4975308;28;45244;-59
2021/07/06 00:08:22;;;;;;;;;2.50;2.50;;;;;21.07;64.15;99628.69;4974464;28;69216;-60
2021/07/06 00:10:47;;;;;;;;;1.00;1.00;;;;;21.09;63.91;99607.91;4974351;28;45399;-59
2021/07/06 00:13:12;;;;;;;;;3.00;3.00;;;;;21.07;64.28;99599.31;4975250;28;45328;-60
2021/07/06 00:15:38;;;;;;;;;3.00;3.00;;;;;21.05;64.03;99607.53;4974304;28;69425;-60
2021/07/06 00:18:03;;;;;;;;;3.00;2.25;;;;;21.04;64.45;99611.25;4974346;28;63311;-60
2021/07/06 00:20:29;;;;;;;;;3.00;3.00;;;;;21.03;63.75;99601.63;4974219;28;69097;-59
2021/07/06 00:22:55;;;;;;;;;2.00;2.00;;;;;21.04;63.48;99607.78;4974685;28;59341;-59
2021/07/06 00:25:21;;;;;;;;;2.75;2.00;;;;;21.02;63.18;99586.63;4975159;28;45494;-59
2021/07/06 00:27:46;;;;;;;;;2.25;2.00;;;;;21.02;63.23;99589.31;4975011;28;45351;-60
2021/07/06 00:30:12;;;;;;;;;2.50;2.00;;;;;21.03;63.21;99576.78;4975081;28;45238;-60
2021/07/06 00:32:38;;;;;;;;;1.50;1.50;;;;;21.04;62.59;99573.06;4975184;28;45304;-59
2021/07/06 00:35:07;;;;;;;;;3.00;2.00;;;;;21.04;62.40;99573.06;4975074;28;45396;-60
2021/07/06 00:37:32;;;;;;;;;2.00;1.25;;;;;21.04;61.63;99573.06;4975105;28;46852;-59
2021/07/06 00:39:58;;;;;;;;;1.25;1.25;;;;;21.05;61.72;99561.34;4973606;28;45349;-59
2021/07/06 00:42:23;;;;;;;;;1.75;1.00;;;;;21.07;61.61;99563.78;4975150;28;45329;-59
2021/07/06 00:44:49;;;;;;;;;1.75;1.75;;;;;21.07;61.58;99580.63;4974859;28;45362;-60
2021/07/06 00:47:14;;;;;;;;;1.00;1.00;;;;;21.09;61.44;99567.84;4974594;28;46389;-60
2021/07/06 00:49:40;;;;;;;;;1.00;1.00;;;;;21.11;61.99;99570.28;4974198;28;63152;-60
2021/07/06 00:52:05;;;;;;;;;1.00;1.00;;;;;21.13;61.84;99568.19;4975027;28;45249;-59
2021/07/06 00:54:31;;;;;;;;;3.00;2.00;;;;;21.14;62.07;99559.97;4974704;28;45342;-59
2021/07/06 00:56:57;;;;;;;;;1.00;1.00;;;;;21.15;61.55;99577.63;4974689;28;46050;-59
2021/07/06 00:59:22;;;;;;;;;1.00;1.00;;;;;21.14;62.08;99584.00;4973562;28;45355;-59
2021/07/06 01:01:48;;;;;;;;;2.00;2.00;;;;;21.17;61.42;99566.69;4974617;28;45315;-60
2021/07/06 01:04:14;;;;;;;;;2.00;1.00;;;;;21.17;61.55;99564.84;4974065;28;45536;-60
2021/07/06 01:06:39;;;;;;;;;1.00;1.00;;;;;21.18;61.46;99560.31;4973957;28;55705;-60
2021/07/06 01:09:05;;;;;;;;;1.25;1.00;;;;;21.18;61.61;99579.00;4973643;28;69779;-60
2021/07/06 01:11:30;;;;;;;;;1.00;1.00;;;;;21.18;61.26;99565.66;4974617;28;45450;-59
2021/07/06 01:13:55;;;;;;;;;2.00;1.00;;;;;21.18;60.79;99568.31;4974570;28;45454;-60
2021/07/06 01:16:21;;;;;;;;;1.50;1.00;;;;;21.16;60.88;99570.41;4973405;28;73518;-59
2021/07/06 01:18:46;;;;;;;;;1.75;1.50;;;;;21.15;60.80;99566.94;4973866;28;62841;-59
2021/07/06 01:21:11;;;;;;;;;1.00;1.00;;;;;21.15;60.37;99558.94;4973607;28;62310;-59
2021/07/06 01:23:37;;;;;;;;;1.00;1.00;;;;;21.12;59.91;99577.25;4974309;28;45504;-58
2021/07/06 01:26:04;;;;;;;;;0.50;0.00;;;;;21.13;59.63;99574.38;4974251;28;46241;-59
2021/07/06 01:28:30;;;;;;;;;1.25;0.50;;;;;21.12;59.61;99594.09;4974313;28;45384;-59
2021/07/06 01:30:55;;;;;;;;;1.00;1.00;;;;;21.11;59.23;99611.19;4974502;28;45351;-60
2021/07/06 01:33:22;;;;;;;;;1.00;0.00;;;;;21.09;59.28;99609.75;4973871;28;53813;-59
2021/07/06 01:35:49;;;;;;;;;1.50;1.00;;;;;21.08;58.98;99600.94;4975642;28;46452;-59
2021/07/06 01:38:15;;;;;;;;;0.00;0.00;;;;;21.09;58.94;99583.06;4974374;28;45316;-59
2021/07/06 01:40:40;;;;;;;;;0.00;0.00;;;;;21.09;58.59;99580.38;4973984;28;50548;-59
2021/07/06 01:43:06;;;;;;;;;1.00;1.00;;;;;21.07;59.15;99593.97;4973438;28;66473;-60
2021/07/06 01:45:31;;;;;;;;;1.00;0.00;;;;;21.06;59.13;99584.34;4974203;28;47207;-60
2021/07/06 01:47:58;;;;;;;;;1.00;1.00;;;;;21.09;59.16;99575.03;4973807;28;45402;-60
2021/07/06 01:50:32;;;;;;;;;0.00;0.00;;;;;21.08;58.91;99576.91;4974359;28;45307;-59
2021/07/06 01:53:00;;;;;;;;;1.50;0.00;;;;;21.07;58.96;99585.97;4973820;28;45565;-60
2021/07/06 01:55:29;;;;;;;;;0.50;0.50;;;;;21.07;58.78;99585.13;4974138;28;45351;-60
2021/07/06 01:57:56;;;;;;;;;0.25;0.25;;;;;21.05;59.12;99601.41;4974354;28;45657;-59
2021/07/06 02:00:23;;;;;;;;;0.00;0.00;;;;;21.04;58.42;99587.22;4974321;28;45303;-60
2021/07/06 02:02:49;;;;;;;;;1.00;1.00;;;;;21.04;58.15;99597.09;4974141;28;45326;-59
2021/07/06 02:05:15;;;;;;;;;0.00;0.00;;;;;21.03;58.52;99612.31;4973763;28;45176;-60
2021/07/06 02:07:41;;;;;;;;;0.00;0.00;;;;;21.03;58.20;99627.53;4973894;28;45190;-59
2021/07/06 02:10:07;;;;;;;;;0.25;0.00;;;;;21.01;58.45;99646.44;4974013;28;45402;-60
2021/07/06 02:12:32;;;;;;;;;0.00;0.00;;;;;21.00;58.30;99654.69;4973706;28;45576;-59
2021/07/06 02:14:59;;;;;;;;;0.00;0.00;;;;;20.98;57.99;99652.22;4971781;28;67113;-59
2021/07/06 02:17:24;;;;;;;;;0.50;0.50;;;;;20.97;58.23;99628.44;4973695;28;45765;-59
2021/07/06 02:19:50;;;;;;;;;0.50;0.50;;;;;20.96;58.41;99648.16;4973594;28;45761;-59
2021/07/06 02:22:15;;;;;;;;;0.00;0.00;;;;;20.92;57.97;99668.34;4973232;28;56166;-59
2021/07/06 02:24:40;;;;;;;;;1.00;1.00;;;;;20.90;58.37;99674.72;4972781;28;68733;-60
2021/07/06 02:27:06;;;;;;;;;0.00;0.00;;;;;20.88;58.56;99682.16;4973016;28;61855;-59
2021/07/06 02:29:31;;;;;;;;;0.75;0.00;;;;;20.84;58.54;99678.28;4973160;28;53399;-59
2021/07/06 02:31:56;;;;;;;;;0.00;0.00;;;;;20.81;58.33;99686.75;4973785;28;45556;-60
2021/07/06 02:34:22;;;;;;;;;0.00;0.00;;;;;20.78;58.72;99697.06;4973483;28;63540;-59
2021/07/06 02:36:47;;;;;;;;;0.25;0.25;;;;;20.73;58.88;99703.03;4976579;28;45362;-59
2021/07/06 02:39:13;;;;;;;;;0.00;0.00;;;;;20.69;58.00;99699.19;4975697;28;65805;-60
2021/07/06 02:41:38;;;;;;;;;0.75;0.75;;;;;20.66;57.56;99664.97;4975609;28;67876;-60
2021/07/06 02:44:04;;;;;;;;;0.00;0.00;;;;;20.60;57.10;99682.66;4975767;28;65086;-60
2021/07/06 02:46:29;;;;;;;;;0.00;0.00;;;;;20.56;57.04;99668.13;4976270;28;45252;-59
2021/07/06 02:48:54;;;;;;;;;0.00;0.00;;;;;20.51;57.24;99676.00;4976591;28;45444;-59
2021/07/06 02:51:20;;;;;;;;;0.00;0.00;;;;;20.48;57.73;99666.59;4975529;28;69402;-59
2021/07/06 02:53:46;;;;;;;;;0.00;0.00;;;;;20.48;57.53;99673.78;4975702;28;65604;-59
2021/07/06 02:56:12;;;;;;;;;0.50;0.00;;;;;20.45;57.82;99677.72;4976215;28;45223;-59
2021/07/06 02:58:37;;;;;;;;;0.00;0.00;;;;;20.42;58.15;99680.81;4976351;28;45275;-59
2021/07/06 03:01:03;;;;;;;;;1.00;0.00;;;;;20.41;58.08;99679.19;4975576;28;61492;-59
2021/07/06 03:03:28;;;;;;;;;0.25;0.00;;;;;20.39;58.22;99676.75;4976029;28;45273;-60
2021/07/06 03:05:53;;;;;;;;;0.00;0.00;;;;;20.39;58.65;99665.25;4976064;28;48130;-59
2021/07/06 03:08:19;;;;;;;;;0.00;0.00;;;;;20.38;58.40;99679.63;4975650;28;65361;-59
2021/07/06 03:10:44;;;;;;;;;0.00;0.00;;;;;20.38;58.50;99676.97;4975470;28;62024;-59
2021/07/06 03:13:09;;;;;;;;;0.00;0.00;;;;;20.37;58.32;99691.34;4975214;28;69386;-60
2021/07/06 03:15:35;;;;;;;;;0.00;0.00;;;;;20.34;58.70;99694.44;4975962;28;45371;-60
2021/07/06 03:18:02;;;;;;;;;0.00;0.00;;;;;20.33;59.05;99698.16;4976146;28;45409;-59
2021/07/06 03:20:27;;;;;;;;;1.00;0.00;;;;;20.31;58.74;99695.72;4975926;28;45430;-59
2021/07/06 03:22:53;;;;;;;;;0.00;0.00;;;;;20.29;59.29;99674.59;4975852;28;46200;-60
2021/07/06 03:25:19;;;;;;;;;0.00;0.00;;;;;20.30;59.32;99678.09;4973987;28;66898;-59
2021/07/06 03:27:44;;;;;;;;;0.00;0.00;;;;;20.28;58.95;99672.97;4976046;28;45249;-59
2021/07/06 03:30:14;;;;;;;;;1.00;1.00;;;;;20.27;59.35;99671.31;4975168;28;63530;-59
2021/07/06 03:32:39;;;;;;;;;0.00;0.00;;;;;20.24;59.38;99673.63;4975877;28;45322;-60
2021/07/06 03:35:06;;;;;;;;;1.00;1.00;;;;;20.23;58.88;99664.00;4974768;28;70575;-59
2021/07/06 03:37:31;;;;;;;;;0.00;0.00;;;;;20.20;58.77;99677.78;4975909;28;45416;-59
2021/07/06 03:39:56;;;;;;;;;0.00;0.00;;;;;20.19;59.01;99676.94;4975716;28;45407;-59
2021/07/06 03:42:22;;;;;;;;;0.00;0.00;;;;;20.19;58.34;99673.47;4975691;28;45318;-60
2021/07/06 03:44:47;;;;;;;;;0.00;0.00;;;;;20.15;58.63;99663.25;4975084;28;62388;-59
2021/07/06 03:47:13;;;;;;;;;0.00;0.00;;;;;20.12;58.14;99674.34;4973490;28;67113;-59
2021/07/06 03:49:38;;;;;;;;;0.00;0.00;;;;;20.09;57.99;99666.78;4974887;28;67198;-59
2021/07/06 03:52:04;;;;;;;;;0.00;0.00;;;;;20.06;58.22;99655.75;4974938;28;57448;-59
2021/07/06 03:54:29;;;;;;;;;1.50;0.50;;;;;20.05;58.11;99662.13;4974284;28;45389;-59
2021/07/06 03:56:55;;;;;;;;;0.00;0.00;;;;;20.01;57.71;99678.56;4975089;28;53559;-59
2021/07/06 03:59:21;;;;;;;;;0.00;0.00;;;;;19.99;57.87;99687.81;4975266;28;45551;-59
2021/07/06 04:01:47;;;;;;;;;0.00;0.00;;;;;19.95;57.09;99671.44;4975381;28;46208;-59
2021/07/06 04:04:12;;;;;;;;;0.00;0.00;;;;;19.92;56.80;99679.88;4975359;28;45477;-60
2021/07/06 04:06:38;;;;;;;;;1.00;0.00;;;;;19.89;56.28;99682.16;4974976;28;55339;-59
2021/07/06 04:09:03;;;;;;;;;1.75;1.00;;;;;19.84;56.45;99680.13;4977353;28;45224;-59
2021/07/06 04:11:28;;;;;;;;;1.00;1.00;;;;;19.80;56.79;99670.94;4975368;28;45333;-60
2021/07/06 04:13:54;;;;;;;;;1.00;0.00;;;;;19.76;56.45;99678.56;4974637;28;66692;-60
2021/07/06 04:16:19;;;;;;;;;1.50;0.50;;;;;19.73;55.55;99685.13;4974473;28;66095;-59
2021/07/06 04:18:45;;;;;;;;;2.75;1.00;;;;;19.70;55.67;99690.09;4974725;28;55909;-59
2021/07/06 04:21:10;;;;;;;;;0.50;0.50;;;;;19.65;55.10;99696.03;4975011;28;45281;-59
2021/07/06 04:23:39;;;;;;;;;1.00;0.25;;;;;19.61;54.94;99702.84;4974629;28;64191;-60
2021/07/06 04:26:04;;;;;;;;;0.00;0.00;;;;;19.57;54.78;99709.66;4975332;28;45233;-59
2021/07/06 04:28:30;;;;;;;;;0.50;0.00;;;;;19.54;54.60;99712.75;4974477;28;62387;-59
2021/07/06 04:30:56;;;;;;;;;0.00;0.00;;;;;19.48;54.25;99701.09;4975036;28;45964;-59
2021/07/06 04:33:21;;;;;;;;;0.00;0.00;;;;;19.45;54.41;99711.38;4975254;28;45322;-59
2021/07/06 04:35:46;;;;;;;;;1.00;0.00;;;;;19.40;54.73;99712.00;4974590;28;55636;-60
2021/07/06 04:38:12;;;;;;;;;0.00;0.00;;;;;19.36;55.03;99722.28;4974185;28;68907;-60
2021/07/06 04:40:38;;;;;;;;;0.00;0.00;;;;;19.33;55.29;99725.38;4974148;28;66891;-60
2021/07/06 04:43:05;;;;;;;;;1.00;0.00;;;;;19.29;55.41;99742.81;4974054;28;66959;-59
2021/07/06 04:45:31;;;;;;;;;1.75;1.50;;;;;19.25;55.09;99737.09;4974872;28;45428;-59
2021/07/06 04:47:56;;;;;;;;;0.00;0.00;;;;;19.23;54.80;99735.66;4974982;28;45860;-59
2021/07/06 04:50:22;;;;;;;;;2.00;0.00;;;;;19.20;55.03;99744.09;4974198;28;64409;-60
2021/07/06 04:52:48;;;;;;;;;0.25;0.25;;;;;19.18;54.29;99741.66;4974674;28;45451;-59
2021/07/06 04:55:15;;;;;;;;;0.00;0.00;;;;;19.16;54.56;99753.53;4975104;28;45322;-60
2021/07/06 04:57:41;;;;;;;;;3.25;1.00;;;;;19.15;54.02;99743.91;4974235;28;45233;-59
2021/07/06 05:00:07;;;;;;;;;2.50;1.25;;;;;19.12;53.55;99748.63;4974281;28;45339;-59
2021/07/06 05:02:32;;;;;;;;;3.25;0.00;;;;;19.12;53.56;99734.50;4974536;28;45346;-59
2021/07/06 05:04:58;;;;;;;;;3.75;0.00;;;;;19.11;53.67;99741.66;4974804;28;45240;-59
2021/07/06 05:07:23;;;;;;;;;0.00;0.00;;;;;19.12;53.89;99739.81;4974383;28;54299;-59
2021/07/06 05:09:49;;;;;;;;;0.00;0.00;;;;;19.13;53.60;99750.25;4974625;28;47100;-59
2021/07/06 05:12:14;;;;;;;;;0.00;0.00;;;;;19.14;53.83;99748.41;4973362;28;45297;-59
2021/07/06 05:14:39;;;;;;;;;0.25;0.00;;;;;19.17;53.80;99753.31;4973723;28;68271;-59
2021/07/06 05:17:05;;;;;;;;;1.00;1.00;;;;;19.19;54.01;99758.44;4973914;28;56772;-60
2021/07/06 05:19:30;;;;;;;;;2.00;0.75;;;;;19.21;53.90;99762.53;4974085;28;45418;-58
2021/07/06 05:21:55;;;;;;;;;0.50;0.50;;;;;19.22;53.61;99758.00;4973485;28;70120;-59
2021/07/06 05:24:21;;;;;;;;;3.00;1.00;;;;;19.21;53.03;99765.19;4973850;28;62561;-58
2021/07/06 05:26:46;;;;;;;;;0.25;0.25;;;;;19.20;52.88;99766.22;4973778;28;63141;-58
2021/07/06 05:29:12;;;;;;;;;1.00;1.00;;;;;19.18;52.46;99760.28;4974269;28;45914;-59
2021/07/06 05:31:37;;;;;;;;;0.00;0.00;;;;;19.18;52.47;99762.13;4974343;28;45382;-58
2021/07/06 05:34:02;;;;;;;;;1.75;1.00;;;;;19.18;51.90;99778.09;4974588;28;45386;-59
2021/07/06 05:36:28;;;;;;;;;0.50;0.50;;;;;19.17;51.25;99768.47;4972879;28;45460;-60
2021/07/06 05:38:53;;;;;;;;;2.00;0.75;;;;;19.13;50.96;99768.88;4973789;28;57345;-59
2021/07/06 05:41:19;;;;;;;;;2.50;1.00;;;;;19.12;51.19;99777.91;4973929;28;45428;-59
2021/07/06 05:43:44;;;;;;;;;1.25;1.00;;;;;19.12;50.84;99779.78;4973806;28;64202;-60
2021/07/06 05:46:10;;;;;;;;;2.00;0.00;;;;;19.10;50.96;99776.50;4972883;28;45546;-59
2021/07/06 05:48:35;;;;;;;;;1.00;0.00;;;;;19.09;50.89;99788.16;4973930;28;45291;-59
2021/07/06 05:51:00;;;;;;;;;2.50;1.25;;;;;19.07;51.07;99787.56;4973853;28;45353;-59
2021/07/06 05:53:26;;;;;;;;;2.00;0.00;;;;;19.04;50.14;99801.28;4972983;28;62857;-59
2021/07/06 05:55:51;;;;;;;;;1.25;1.00;;;;;19.01;50.16;99785.75;4973799;28;45235;-59
2021/07/06 05:58:16;;;;;;;;;3.00;0.50;;;;;19.01;50.58;99799.88;4972913;28;71367;-60
2021/07/06 06:00:42;;;;;;;;;4.00;2.00;;;;;19.01;50.89;99799.88;4973849;28;45316;-59
2021/07/06 06:03:10;;;;;;;;;0.75;0.75;;;;;19.02;50.90;99795.38;4973986;28;45410;-59
2021/07/06 06:05:36;;;;;;;;;2.50;1.00;;;;;19.05;50.94;99801.09;4973485;28;45566;-59
2021/07/06 06:08:01;;;;;;;;;1.25;1.00;;;;;19.07;50.80;99800.88;4973851;28;45356;-59
2021/07/06 06:10:27;;;;;;;;;2.00;1.00;;;;;19.07;50.77;99807.03;4975859;28;45306;-59
2021/07/06 06:12:52;;;;;;;;;2.75;1.00;;;;;19.05;50.76;99795.78;4976877;28;45386;-59
2021/07/06 06:15:17;;;;;;;;;1.50;1.00;;;;;19.05;50.55;99794.94;4975868;28;63687;-59
2021/07/06 06:17:43;;;;;;;;;1.50;1.00;;;;;19.02;50.72;99801.53;4976232;28;46161;-60
2021/07/06 06:20:08;;;;;;;;;1.00;1.00;;;;;19.03;50.77;99797.84;4976312;28;45501;-60
2021/07/06 06:22:34;;;;;;;;;1.00;1.00;;;;;19.06;51.23;99807.22;4976680;28;45272;-59
2021/07/06 06:25:00;;;;;;;;;2.50;1.00;;;;;19.07;51.32;99815.03;4976611;28;45605;-60
2021/07/06 06:27:25;;;;;;;;;2.25;1.00;;;;;19.07;51.13;99828.34;4975814;28;45367;-59
2021/07/06 06:29:51;;;;;;;;;1.00;1.00;;;;;19.09;51.13;99828.91;4974973;28;45432;-59
2021/07/06 06:32:16;;;;;;;;;2.25;1.00;;;;;19.09;51.26;99834.25;4977910;28;45354;-59
2021/07/06 06:34:43;;;;;;;;;3.25;1.00;;;;;19.11;51.05;99836.72;4976807;28;45601;-59
2021/07/06 06:37:08;;;;;;;;;1.50;1.00;;;;;19.12;50.76;99843.66;4976327;28;46149;-60
2021/07/06 06:39:33;;;;;;;;;2.00;1.00;;;;;19.10;50.46;99843.88;4975658;28;62710;-59
2021/07/06 06:41:59;;;;;;;;;3.00;1.00;;;;;19.08;50.83;99840.59;4975761;28;61397;-59
2021/07/06 06:44:24;;;;;;;;;2.00;0.50;;;;;19.07;50.90;99857.63;4976312;28;45281;-59
2021/07/06 06:46:50;;;;;;;;;1.00;1.00;;;;;19.07;50.82;99851.47;4976287;28;46602;-59
2021/07/06 06:49:15;;;;;;;;;2.25;1.00;;;;;19.05;50.44;99854.34;4976240;28;45307;-59
2021/07/06 06:51:40;;;;;;;;;1.00;1.00;;;;;19.05;50.14;99859.69;4976558;28;46053;-59
2021/07/06 06:54:06;;;;;;;;;1.00;1.00;;;;;19.01;49.61;99862.94;4975371;28;70467;-59
2021/07/06 06:56:31;;;;;;;;;1.25;1.00;;;;;18.98;49.82;99858.88;4973829;28;70684;-60
2021/07/06 06:58:56;;;;;;;;;1.00;1.00;;;;;18.96;49.84;99860.91;4976142;28;45334;-60
2021/07/06 07:01:23;;;;;;;;;2.25;1.00;;;;;18.95;49.82;99875.22;4976234;28;45260;-59
2021/07/06 07:03:48;;;;;;;;;2.00;1.00;;;;;18.96;50.44;99871.56;4976283;28;45434;-59
2021/07/06 07:06:13;;;;;;;;;2.00;0.75;;;;;18.97;50.60;99878.53;4976028;28;45983;-59
2021/07/06 07:08:39;;;;;;;;;1.50;1.00;;;;;19.00;51.01;99882.59;4975071;28;68818;-60
2021/07/06 07:11:04;;;;;;;;;1.75;1.75;;;;;19.00;51.34;99872.78;4976036;28;45363;-59
2021/07/06 07:13:29;;;;;;;;;3.25;1.00;;;;;19.02;51.96;99886.72;4975382;28;60826;-59
2021/07/06 07:15:55;;;;;;;;;3.00;1.25;;;;;19.03;52.11;99883.03;4975043;28;68635;-59
2021/07/06 07:18:20;;;;;;;;;4.00;1.00;;;;;19.03;52.47;99896.34;4975092;28;66451;-59
2021/07/06 07:20:45;;;;;;;;;2.00;1.00;;;;;19.04;52.04;99911.28;4974923;28;59521;-59
2021/07/06 07:23:11;;;;;;;;;1.75;1.00;;;;;19.00;51.98;99918.06;4976084;28;45512;-59
2021/07/06 07:25:37;;;;;;;;;3.00;1.00;;;;;18.98;52.26;99914.78;4975869;28;46066;-60
2021/07/06 07:28:02;;;;;;;;;3.00;1.00;;;;;18.94;51.92;99906.34;4975847;28;45347;-60
2021/07/06 07:30:28;;;;;;;;;3.50;1.00;;;;;18.93;51.81;99910.03;4975861;28;45465;-59
2021/07/06 07:32:53;;;;;;;;;4.25;0.25;;;;;18.92;51.91;99911.03;4975691;28;45546;-60
2021/07/06 07:35:19;;;;;;;;;3.25;2.00;;;;;18.93;51.97;99901.22;4975813;28;45391;-59
2021/07/06 07:37:45;;;;;;;;;2.00;1.00;;;;;18.96;51.98;99914.16;4975490;28;45912;-59
2021/07/06 07:40:11;;;;;;;;;2.25;1.00;;;;;18.96;51.75;99924.81;4975480;28;47550;-59
2021/07/06 07:42:37;;;;;;;;;0.25;0.00;;;;;18.95;51.51;99917.81;4975809;28;45366;-59
2021/07/06 07:45:02;;;;;;;;;2.50;2.00;;;;;18.94;51.97;99911.66;4992064;28;67026;-60
2021/07/06 07:47:28;;;;;;;;;3.75;1.25;;;;;18.95;51.56;99917.81;5006429;28;45444;-59
2021/07/06 07:49:53;;;;;;;;;1.00;1.00;;;;;18.94;51.70;99932.94;5008443;28;52192;-59
2021/07/06 07:52:18;;;;;;;;;1.50;1.00;;;;;18.93;51.46;99930.50;5000448;28;45553;-59
2021/07/06 07:54:44;;;;;;;;;1.00;1.00;;;;;18.88;51.46;99932.97;5005245;27;49168;-58
2021/07/06 07:57:23;;;;;;;;;2.00;1.00;;;;;18.86;51.67;99935.03;5004713;28;45406;-59
2021/07/06 07:59:48;;;;;;;;;6.50;1.00;;;;;18.84;51.39;99936.03;5020944;28;45529;-59
2021/07/06 08:02:14;;;;;;;;;3.25;1.50;;;;;18.87;52.03;99931.34;4993723;27;45490;-59
2021/07/06 08:04:39;;;;;;;;;2.00;1.00;;;;;18.88;51.54;99935.63;5015552;27;72903;-59
2021/07/06 08:07:05;;;;;;;;;2.50;2.00;;;;;18.88;52.10;99935.63;4990373;28;69429;-59
2021/07/06 08:09:30;;;;;;;;;3.00;1.00;;;;;18.88;51.79;99938.28;4992855;28;58512;-59
2021/07/06 08:11:55;;;;;;;;;3.00;1.25;;;;;18.91;51.80;99944.00;5011874;28;63755;-60
2021/07/06 08:14:21;;;;;;;;;3.00;1.00;;;;;18.95;52.12;99952.41;5032001;27;72851;-60
2021/07/06 08:16:46;;;;;;;;;2.50;2.00;;;;;19.00;51.71;99955.31;4989478;28;61053;-60
2021/07/06 08:19:11;;;;;;;;;3.00;2.00;;;;;19.03;51.54;99952.25;5013993;28;45626;-60
2021/07/06 08:21:37;;;;;;;;;4.00;2.00;;;;;19.08;51.52;99960.41;4983403;28;45391;-59
2021/07/06 08:24:03;;;;;;;;;4.00;2.00;;;;;19.11;51.03;99967.97;4989572;28;46186;-59
2021/07/06 08:26:28;;;;;;;;;1.75;1.00;;;;;19.12;51.32;99972.28;4999896;27;45487;-59
2021/07/06 08:28:54;;;;;;;;;1.00;1.00;;;;;19.13;51.36;99965.94;4991197;27;45584;-59
2021/07/06 08:31:19;;;;;;;;;1.00;1.00;;;;;19.15;51.77;99964.91;4994791;28;45540;-58
2021/07/06 08:33:44;;;;;;;;;5.00;1.00;;;;;19.15;51.47;99978.22;4996669;28;69171;-58
2021/07/06 08:36:10;;;;;;;;;2.25;1.00;;;;;19.17;51.40;99976.19;5008827;28;68129;-59
2021/07/06 08:38:38;;;;;;;;;4.50;2.00;;;;;19.16;50.97;99996.69;5003470;28;60351;-60
2021/07/06 08:41:04;;;;;;;;;6.00;2.00;;;;;19.16;50.82;99986.03;5017898;27;45235;-59
2021/07/06 08:43:29;;;;;;;;;2.00;1.50;;;;;19.19;50.80;99984.78;5025694;28;46331;-59
2021/07/06 08:45:55;;;;;;;;;3.25;2.00;;;;;19.21;50.86;100001.38;5036081;27;55620;-59
2021/07/06 08:48:20;;;;;;;;;1.00;1.00;;;;;19.22;51.06;99993.19;4997161;28;58424;-59
2021/07/06 08:50:46;;;;;;;;;3.00;1.00;;;;;19.22;50.77;99997.69;5041194;28;61900;-60
2021/07/06 08:53:11;;;;;;;;;1.50;1.00;;;;;19.23;50.63;99999.31;5051987;27;45967;-59
2021/07/06 08:55:37;;;;;;;;;3.00;1.00;;;;;19.22;50.96;100006.50;5056516;28;45535;-58
2021/07/06 08:58:02;;;;;;;;;2.00;1.00;;;;;19.22;50.78;100009.16;5049419;27;45441;-59
2021/07/06 09:00:30;;;;;;;;;1.00;1.00;;;;;19.23;50.60;100016.13;5031577;27;62289;-60
2021/07/06 09:02:58;;;;;;;;;3.00;2.00;;;;;19.22;50.68;100022.50;5035492;27;47300;-59
2021/07/06 09:05:24;;;;;;;;;4.00;2.00;;;;;19.24;50.79;100015.09;4996699;28;45362;-59
2021/07/06 09:07:50;;;;;;;;;4.00;2.00;;;;;19.22;51.15;100027.81;4978698;28;45438;-59
2021/07/06 09:10:20;;;;;;;;;3.25;2.00;;;;;19.23;50.46;100024.13;4986956;28;45477;-60
2021/07/06 09:12:46;;;;;;;;;3.75;2.50;;;;;19.25;50.93;100030.06;4990105;28;45424;-59
2021/07/06 09:15:23;;;;;;;;;2.00;1.00;;;;;19.29;50.55;100022.47;4993515;28;45258;-59
2021/07/06 09:18:11;;;;;;;;;4.50;2.00;;;;;19.33;50.71;100029.03;4986766;28;45593;-60
2021/07/06 09:20:38;;;;;;;;;2.25;1.00;;;;;19.34;50.68;100032.53;4992143;28;45526;-59
2021/07/06 09:23:26;;;;;;;;;1.00;1.00;;;;;19.36;50.75;100014.47;4997970;28;45974;-59
2021/07/06 09:26:04;;;;;;;;;4.50;0.75;;;;;19.36;50.72;100031.28;5005006;28;45469;-60
2021/07/06 09:28:31;;;;;;;;;3.50;2.25;;;;;19.38;51.04;100028.41;4991424;28;45588;-59
2021/07/06 09:30:59;;;;;;;;;2.75;2.75;;;;;19.41;50.46;100034.16;5021410;27;45511;-59
2021/07/06 09:33:28;;;;;;;;;2.00;2.00;;;;;19.45;50.36;100026.53;4992547;28;46120;-59
2021/07/06 09:35:54;;;;;;;;;3.00;3.00;;;;;19.46;50.55;100030.84;5008467;28;45684;-60
2021/07/06 09:38:19;;;;;;;;;4.50;2.75;;;;;19.50;50.85;100028.59;5060869;27;45387;-59
2021/07/06 09:40:45;;;;;;;;;5.00;2.75;;;;;19.54;50.71;100027.97;4997520;27;62733;-60
2021/07/06 09:43:24;;;;;;;;;1.00;1.00;;;;;19.62;50.83;100037.56;5043605;28;45467;-59
2021/07/06 09:46:09;;;;;;;;;3.00;3.00;;;;;19.70;50.27;100037.34;4997946;27;45326;-59
2021/07/06 09:48:43;;;;;;;;;1.75;1.00;;;;;19.79;50.03;100039.81;4981164;28;45435;-59
2021/07/06 09:51:18;;;;;;;;;2.50;2.00;;;;;19.86;49.49;100029.94;4982235;28;45499;-58
2021/07/06 09:53:45;;;;;;;;;5.50;2.75;;;;;19.94;50.03;100028.91;4985724;28;46204;-60
2021/07/06 09:56:11;;;;;;;;;2.75;1.75;;;;;20.04;49.78;100031.16;4987318;28;45436;-59
2021/07/06 09:58:56;;;;;;;;;4.50;3.00;;;;;20.21;49.28;100036.81;4987934;28;45579;-59
2021/07/06 10:01:22;;;;;;;;;4.75;2.25;;;;;20.40;49.19;100037.75;4986872;28;45643;-59
2021/07/06 10:03:48;;;;;;;;;2.00;2.00;;;;;20.63;48.61;100045.22;5009709;28;45532;-59
2021/07/06 10:06:14;;;;;;;;;1.75;1.75;;;;;20.86;48.42;100041.22;4988256;28;45941;-59
2021/07/06 10:08:41;;;;;;;;;4.00;2.00;;;;;21.07;47.60;100044.53;4991460;27;45541;-59
2021/07/06 10:11:07;;;;;;;;;1.50;1.00;;;;;21.28;47.01;100048.66;4997785;28;45572;-59
2021/07/06 10:13:32;;;;;;;;;2.00;1.25;;;;;21.41;46.02;100043.22;5002347;27;45318;-59
2021/07/06 10:15:58;;;;;;;;;2.50;1.50;;;;;21.50;45.86;100043.72;5029780;28;45474;-60
2021/07/06 10:18:23;;;;;;;;;2.00;0.50;;;;;21.58;45.71;100058.69;5028819;27;45453;-60
2021/07/06 10:20:49;;;;;;;;;3.00;1.00;;;;;21.62;45.13;100042.00;5000862;28;61707;-59
2021/07/06 10:23:14;;;;;;;;;1.00;1.00;;;;;21.66;45.44;100063.78;5031904;28;71109;-58
2021/07/06 10:25:40;;;;;;;;;2.50;1.00;;;;;21.68;45.63;100053.69;5059093;28;45397;-60
2021/07/06 10:28:07;;;;;;;;;1.00;1.00;;;;;21.67;45.59;100053.88;5024555;27;45509;-60
2021/07/06 10:30:43;;;;;;;;;1.75;1.50;;;;;21.67;44.77;100057.41;5048186;28;45512;-60
2021/07/06 10:33:15;;;;;;;;;1.75;1.25;;;;;21.64;44.88;100061.31;5033897;28;46175;-60
2021/07/06 10:35:41;;;;;;;;;1.25;1.00;;;;;21.66;44.65;100066.44;5047607;27;45729;-60
2021/07/06 10:38:32;;;;;;;;;1.00;1.00;;;;;21.66;43.87;100076.31;4993960;27;45225;-59
2021/07/06 10:40:59;;;;;;;;;2.00;0.50;;;;;21.62;43.59;100063.38;4978968;28;45542;-59
2021/07/06 10:43:31;;;;;;;;;1.00;1.00;;;;;21.60;43.52;100076.13;4978756;28;46574;-59
2021/07/06 10:46:08;;;;;;;;;1.00;1.00;;;;;21.60;43.07;100075.31;4985148;28;45839;-59
2021/07/06 10:48:41;;;;;;;;;2.50;1.50;;;;;21.57;43.00;100073.09;4976525;28;45360;-59
2021/07/06 10:51:07;;;;;;;;;2.00;1.00;;;;;21.55;43.11;100073.28;4984808;28;45963;-60
2021/07/06 10:53:32;;;;;;;;;2.00;2.00;;;;;21.56;43.59;100076.78;4994425;27;64756;-59
2021/07/06 10:56:07;;;;;;;;;1.00;1.00;;;;;21.59;43.67;100071.00;4994747;28;45536;-60
2021/07/06 10:58:52;;;;;;;;;1.00;1.00;;;;;21.63;43.97;100074.91;4995993;28;45513;-59
2021/07/06 11:01:57;;;;;;;;;1.00;1.00;;;;;21.68;43.48;100075.06;4992051;28;45615;-60
2021/07/06 11:04:45;;;;;;;;;0.75;0.75;;;;;21.73;44.41;100085.88;5021964;28;45488;-60
2021/07/06 11:07:11;;;;;;;;;2.75;1.00;;;;;21.79;44.35;100074.31;5006002;27;45515;-59
2021/07/06 11:09:36;;;;;;;;;27.00;22.00;;;;;21.81;43.31;100092.81;5026092;27;45466;-59
2021/07/06 11:12:27;;;;;;;;;1.00;1.00;;;;;21.83;43.57;100092.59;5030622;27;45497;-59
2021/07/06 11:14:56;;;;;;;;;2.00;1.00;;;;;21.81;43.70;100097.34;5012439;28;45970;-59
2021/07/06 11:17:48;;;;;;;;;1.00;1.00;;;;;21.82;43.95;100102.47;5023219;28;45523;-59
2021/07/06 11:20:18;;;;;;;;;0.75;0.75;;;;;21.91;44.11;100097.66;5002520;28;45701;-60
2021/07/06 11:22:51;;;;;;;;;2.00;2.00;;;;;22.02;44.48;100098.75;5008047;28;45453;-58
2021/07/06 11:25:18;;;;;;;;;1.00;1.00;;;;;22.15;43.61;100093.25;5027166;28;46214;-59
2021/07/06 11:28:06;;;;;;;;;2.00;2.00;;;;;22.37;43.61;100093.63;5021001;28;45474;-60
2021/07/06 11:30:37;;;;;;;;;2.00;1.50;;;;;22.62;42.92;100102.59;5040483;28;45392;-60